Time;durP1;ratioP1;P1;durP2;ratioP2;P2;SDS_P1;SDS_P2;PMS_P1;PMS_P2;Temp;Humidity;BMP_temperature;BMP_pressure;BME280_temperature;BME280_humidity;BME280_pressure;Samples;Min_cycle;Max_cycle;Signal;HPM_P1;HPM_P2
2023/11/03 00:01:11;;;;;;;42.40;8.17;;;11.30;1.00;;;;;;5053741;28;20189;-78
2023/11/03 00:03:37;;;;;;;45.55;8.13;;;11.30;1.00;;;;;;5054005;28;20184;-78
2023/11/03 00:06:03;;;;;;;46.23;7.10;;;11.20;1.00;;;;;;5055961;28;20154;-78
2023/11/03 00:08:30;;;;;;;44.22;8.23;;;11.30;1.00;;;;;;5039140;28;20166;-78
2023/11/03 00:10:58;;;;;;;42.85;9.38;;;11.30;1.00;;;;;;5057803;28;20157;-78
2023/11/03 00:13:24;;;;;;;41.45;6.68;;;11.30;1.00;;;;;;5039558;28;20212;-78
2023/11/03 00:15:49;;;;;;;41.27;6.80;;;11.20;1.00;;;;;;5057740;28;20169;-78
2023/11/03 00:18:15;;;;;;;41.97;8.67;;;11.30;1.00;;;;;;5057667;28;20184;-78
2023/11/03 00:20:41;;;;;;;43.63;9.10;;;11.30;1.00;;;;;;5057411;28;20215;-78
2023/11/03 00:23:07;;;;;;;41.33;7.50;;;11.30;1.00;;;;;;5057550;28;20546;-78
2023/11/03 00:25:33;;;;;;;40.38;5.90;;;11.30;1.00;;;;;;5058009;28;20222;-78
2023/11/03 00:27:59;;;;;;;39.10;5.35;;;11.30;1.00;;;;;;5056800;28;20173;-78
2023/11/03 00:30:25;;;;;;;42.47;6.47;;;11.40;1.00;;;;;;5039431;28;20173;-78
2023/11/03 00:32:51;;;;;;;39.97;5.68;;;11.30;1.00;;;;;;5057489;28;20279;-78
2023/11/03 00:35:16;;;;;;;40.00;5.13;;;11.30;1.00;;;;;;5058153;28;20212;-78
2023/11/03 00:37:44;;;;;;;41.07;5.13;;;11.30;1.00;;;;;;5057826;28;20701;-78
2023/11/03 00:40:13;;;;;;;43.45;4.82;;;11.30;1.00;;;;;;5056456;28;20274;-76
2023/11/03 00:42:39;;;;;;;38.88;5.30;;;11.30;1.00;;;;;;5056086;28;20165;-78
2023/11/03 00:45:06;;;;;;;38.40;4.60;;;11.30;1.00;;;;;;5057268;28;20165;-78
2023/11/03 00:47:31;;;;;;;40.33;6.47;;;11.30;1.00;;;;;;5040200;28;20167;-78
2023/11/03 00:49:57;;;;;;;37.97;6.80;;;11.30;1.00;;;;;;5057299;28;20619;-78
2023/11/03 00:52:25;;;;;;;39.47;5.00;;;11.20;1.00;;;;;;5056628;28;20400;-78
2023/11/03 00:54:51;;;;;;;39.45;5.20;;;11.20;1.00;;;;;;5056834;28;20411;-78
2023/11/03 00:57:17;;;;;;;42.42;5.15;;;11.20;1.00;;;;;;5056881;28;20630;-78
2023/11/03 00:59:43;;;;;;;41.97;6.90;;;11.20;1.00;;;;;;5056496;28;20188;-78
2023/11/03 01:02:11;;;;;;;38.53;5.50;;;11.20;1.00;;;;;;5056801;28;20175;-78
2023/11/03 01:04:37;;;;;;;44.17;5.30;;;11.20;1.00;;;;;;5038787;28;20188;-78
2023/11/03 01:07:04;;;;;;;41.08;6.78;;;11.30;1.00;;;;;;5056238;28;20172;-78
2023/11/03 01:09:29;;;;;;;46.40;6.38;;;11.20;1.00;;;;;;5056355;28;20249;-78
2023/11/03 01:11:55;;;;;;;42.47;6.27;;;11.20;1.00;;;;;;5055773;28;20247;-78
2023/11/03 01:14:22;;;;;;;43.57;5.80;;;11.10;1.00;;;;;;5038822;28;20243;-78
2023/11/03 01:16:49;;;;;;;41.47;9.70;;;11.20;1.00;;;;;;5038844;28;20404;-77
2023/11/03 01:19:18;;;;;;;41.92;8.05;;;11.20;1.00;;;;;;5056203;28;20168;-78
2023/11/03 01:21:44;;;;;;;40.92;7.57;;;11.10;1.00;;;;;;5056116;28;20635;-78
2023/11/03 01:24:11;;;;;;;43.72;9.23;;;11.10;1.00;;;;;;5056214;28;20181;-78
2023/11/03 01:26:39;;;;;;;44.00;8.60;;;11.10;1.00;;;;;;5056620;28;20162;-78
2023/11/03 01:29:05;;;;;;;41.15;7.03;;;11.10;1.00;;;;;;5037437;28;20256;-78
2023/11/03 01:31:32;;;;;;;41.17;7.40;;;11.10;1.00;;;;;;5037639;28;20251;-78
2023/11/03 01:33:59;;;;;;;43.38;8.93;;;11.00;1.00;;;;;;5055599;28;21022;-78
2023/11/03 01:36:24;;;;;;;41.40;8.80;;;11.00;1.00;;;;;;5056361;28;20250;-78
2023/11/03 01:38:51;;;;;;;43.50;7.80;;;11.00;1.00;;;;;;5056088;28;20169;-78
2023/11/03 01:41:17;;;;;;;44.50;9.43;;;11.00;1.00;;;;;;5055883;28;20189;-78
2023/11/03 01:44:05;;;;;;;40.88;7.45;;;11.00;1.00;;;;;;5055919;28;20181;-78
2023/11/03 01:46:38;;;;;;;42.97;7.65;;;11.00;1.00;;;;;;5055653;28;20165;-78
2023/11/03 01:49:06;;;;;;;42.65;7.18;;;11.00;1.00;;;;;;5056068;28;20161;-78
2023/11/03 01:51:33;;;;;;;42.22;7.82;;;11.00;1.00;;;;;;5055389;28;20157;-78
2023/11/03 01:53:59;;;;;;;42.70;8.77;;;11.00;1.00;;;;;;5055039;28;20181;-78
2023/11/03 01:56:26;;;;;;;43.47;9.82;;;11.00;1.00;;;;;;5055619;28;20172;-78
2023/11/03 01:58:52;;;;;;;44.72;10.50;;;11.00;1.00;;;;;;5055678;28;20172;-78
2023/11/03 02:01:18;;;;;;;41.88;8.52;;;11.00;1.00;;;;;;5055605;28;20711;-78
2023/11/03 02:03:46;;;;;;;42.97;8.70;;;11.10;1.00;;;;;;5054538;28;20606;-76
2023/11/03 02:06:12;;;;;;;44.47;11.52;;;11.00;1.00;;;;;;5054732;28;20169;-76
2023/11/03 02:08:38;;;;;;;43.07;12.10;;;10.90;1.00;;;;;;5054575;28;20706;-78
2023/11/03 02:11:04;;;;;;;42.77;8.63;;;10.90;1.00;;;;;;5055835;28;20657;-78
2023/11/03 02:13:33;;;;;;;49.60;13.77;;;10.80;1.00;;;;;;5055501;28;20443;-78
2023/11/03 02:15:59;;;;;;;47.63;11.90;;;10.80;1.00;;;;;;5055249;28;20169;-78
2023/11/03 02:18:25;;;;;;;46.50;13.90;;;10.80;1.00;;;;;;5055203;28;20219;-78
2023/11/03 02:20:51;;;;;;;44.20;11.77;;;10.80;1.00;;;;;;5055087;28;20185;-78
2023/11/03 02:23:16;;;;;;;44.77;11.03;;;10.80;1.00;;;;;;5055426;28;20764;-78
2023/11/03 02:25:43;;;;;;;46.50;13.20;;;10.80;1.00;;;;;;5055291;28;20630;-78
2023/11/03 02:28:09;;;;;;;45.72;13.48;;;10.80;1.00;;;;;;5054240;28;20662;-78
2023/11/03 02:30:35;;;;;;;46.33;13.70;;;10.80;1.00;;;;;;5053501;28;20165;-78
2023/11/03 02:33:00;;;;;;;52.90;11.87;;;10.80;1.00;;;;;;5054521;28;20835;-78
2023/11/03 02:35:26;;;;;;;47.37;11.07;;;10.80;1.00;;;;;;5054701;28;20187;-78
2023/11/03 02:37:51;;;;;;;46.73;12.57;;;10.80;1.00;;;;;;5054906;28;20197;-78
2023/11/03 02:40:17;;;;;;;46.73;14.10;;;10.80;1.00;;;;;;5054877;28;20669;-78
2023/11/03 02:42:43;;;;;;;45.60;10.00;;;10.80;1.00;;;;;;5054725;28;20189;-78
2023/11/03 02:45:10;;;;;;;49.00;11.27;;;10.80;1.00;;;;;;5054687;28;20173;-78
2023/11/03 02:47:36;;;;;;;50.00;14.35;;;10.80;1.00;;;;;;5054402;28;20180;-78
2023/11/03 02:50:01;;;;;;;53.40;14.50;;;10.70;1.00;;;;;;5054466;28;20244;-78
2023/11/03 02:52:29;;;;;;;48.70;14.57;;;10.80;1.00;;;;;;5054575;28;20187;-78
2023/11/03 02:54:55;;;;;;;45.50;9.75;;;10.80;1.00;;;;;;5054479;28;20418;-78
2023/11/03 02:57:23;;;;;;;46.37;12.27;;;10.80;1.00;;;;;;5054473;28;20169;-78
2023/11/03 02:59:49;;;;;;;47.78;12.77;;;10.80;1.00;;;;;;5053027;28;20302;-78
2023/11/03 03:02:15;;;;;;;46.10;13.90;;;10.80;1.00;;;;;;5053798;28;20667;-78
2023/11/03 03:04:41;;;;;;;48.67;12.30;;;10.80;1.00;;;;;;5053560;28;20200;-78
2023/11/03 03:07:06;;;;;;;47.30;12.90;;;10.70;1.00;;;;;;5054440;28;20526;-78
2023/11/03 03:09:32;;;;;;;46.27;12.50;;;10.80;1.00;;;;;;5054393;28;20960;-78
2023/11/03 03:11:58;;;;;;;48.07;12.80;;;10.80;1.00;;;;;;5054244;28;20176;-78
2023/11/03 03:14:24;;;;;;;46.50;12.80;;;10.70;1.00;;;;;;5054044;28;20215;-78
2023/11/03 03:16:50;;;;;;;46.20;11.17;;;10.60;1.00;;;;;;5054003;28;20856;-78
2023/11/03 03:19:16;;;;;;;47.33;14.18;;;10.70;1.00;;;;;;5053847;28;20161;-78
2023/11/03 03:21:42;;;;;;;46.22;11.00;;;10.60;1.00;;;;;;5054143;28;20162;-78
2023/11/03 03:24:08;;;;;;;45.83;11.33;;;10.60;1.00;;;;;;5036411;28;20186;-78
2023/11/03 03:26:34;;;;;;;49.97;13.03;;;10.60;1.00;;;;;;5054199;28;20158;-78
2023/11/03 03:29:00;;;;;;;58.03;13.50;;;10.60;1.00;;;;;;5053266;28;20981;-75
2023/11/03 03:31:26;;;;;;;47.60;13.37;;;10.60;1.00;;;;;;5053018;28;20169;-78
2023/11/03 03:33:51;;;;;;;50.57;15.93;;;10.50;1.00;;;;;;5053878;28;20197;-78
2023/11/03 03:36:17;;;;;;;46.57;13.60;;;10.50;1.00;;;;;;5054023;28;20173;-78
2023/11/03 03:38:43;;;;;;;48.73;14.53;;;10.50;1.00;;;;;;5054320;28;20176;-78
2023/11/03 03:41:13;;;;;;;50.57;14.60;;;10.40;1.00;;;;;;5052970;28;20203;-78
2023/11/03 03:43:39;;;;;;;47.75;14.98;;;10.50;1.00;;;;;;5054103;28;20493;-78
2023/11/03 03:46:05;;;;;;;48.37;13.77;;;10.50;1.00;;;;;;5053866;28;20165;-78
2023/11/03 03:48:31;;;;;;;51.42;14.63;;;10.40;1.00;;;;;;5052578;28;20169;-77
2023/11/03 03:50:56;;;;;;;49.07;14.77;;;10.30;1.00;;;;;;5054256;28;20172;-78
2023/11/03 03:53:22;;;;;;;48.20;15.50;;;10.30;1.00;;;;;;5053697;28;20264;-78
2023/11/03 03:55:47;;;;;;;47.50;14.80;;;10.30;1.00;;;;;;5053761;28;20557;-78
2023/11/03 03:58:13;;;;;;;49.20;12.77;;;10.40;1.00;;;;;;5053735;28;20248;-78
2023/11/03 04:00:39;;;;;;;56.33;17.27;;;10.30;1.00;;;;;;5053261;28;20184;-78
2023/11/03 04:03:05;;;;;;;54.93;17.27;;;10.30;1.00;;;;;;5053379;28;20526;-78
2023/11/03 04:05:30;;;;;;;52.77;18.10;;;10.20;1.00;;;;;;5052278;28;20165;-78
2023/11/03 04:07:56;;;;;;;49.87;15.47;;;10.20;1.00;;;;;;5053728;28;20164;-78
2023/11/03 04:10:21;;;;;;;50.17;15.70;;;10.20;1.00;;;;;;5052262;28;20176;-78
2023/11/03 04:12:47;;;;;;;54.70;17.37;;;10.20;1.00;;;;;;5053234;28;20686;-78
2023/11/03 04:15:13;;;;;;;49.77;17.10;;;10.20;1.00;;;;;;5053266;28;20166;-78
2023/11/03 04:17:38;;;;;;;52.10;20.40;;;10.20;1.00;;;;;;5053222;28;20170;-78
2023/11/03 04:20:05;;;;;;;48.87;14.20;;;10.20;1.00;;;;;;5053267;28;20201;-78
2023/11/03 04:22:30;;;;;;;51.63;17.38;;;10.30;1.00;;;;;;5053329;28;20181;-78
2023/11/03 04:24:56;;;;;;;49.10;14.27;;;10.20;1.00;;;;;;5053590;28;20161;-78
2023/11/03 04:27:22;;;;;;;48.90;15.63;;;10.20;1.00;;;;;;5035438;28;20280;-78
2023/11/03 04:29:48;;;;;;;51.55;15.98;;;10.20;1.00;;;;;;5052755;28;20166;-77
2023/11/03 04:32:13;;;;;;;49.67;17.47;;;10.20;1.00;;;;;;5052493;28;20256;-78
2023/11/03 04:34:39;;;;;;;50.73;13.90;;;10.10;1.00;;;;;;5052759;28;20186;-77
2023/11/03 04:37:04;;;;;;;49.50;16.17;;;10.10;1.00;;;;;;5052517;28;20165;-77
2023/11/03 04:39:30;;;;;;;51.00;17.23;;;10.20;1.00;;;;;;5052785;28;20275;-77
2023/11/03 04:41:56;;;;;;;57.47;18.03;;;10.10;1.00;;;;;;5052705;28;20161;-77
2023/11/03 04:44:21;;;;;;;50.37;14.80;;;10.10;1.00;;;;;;5052545;28;20177;-77
2023/11/03 04:46:47;;;;;;;51.03;14.80;;;10.20;1.00;;;;;;5052983;28;20162;-78
2023/11/03 04:49:14;;;;;;;52.15;17.85;;;10.10;1.00;;;;;;5052678;28;20158;-77
2023/11/03 04:51:40;;;;;;;53.60;23.42;;;10.10;1.00;;;;;;5053671;28;20161;-77
2023/11/03 04:54:07;;;;;;;50.20;18.40;;;10.00;1.00;;;;;;5055980;28;20223;-78
2023/11/03 04:56:33;;;;;;;51.30;19.15;;;10.00;3.20;;;;;;5055943;28;20184;-78
2023/11/03 04:58:58;;;;;;;54.27;18.57;;;10.00;3.80;;;;;;5056113;28;20158;-77
2023/11/03 05:01:24;;;;;;;60.47;22.53;;;10.00;5.10;;;;;;5055909;28;20185;-78
2023/11/03 05:03:50;;;;;;;55.13;24.20;;;9.90;8.10;;;;;;5056271;28;20189;-77
2023/11/03 05:06:17;;;;;;;56.30;24.80;;;9.90;11.50;;;;;;5055932;28;20226;-77
2023/11/03 05:08:43;;;;;;;54.13;27.33;;;9.80;12.90;;;;;;5056150;28;20169;-77
2023/11/03 05:11:08;;;;;;;55.47;28.13;;;9.70;17.10;;;;;;5055879;28;20715;-78
2023/11/03 05:13:34;;;;;;;64.83;26.40;;;9.60;20.30;;;;;;5054414;28;20674;-78
2023/11/03 05:16:00;;;;;;;57.03;27.77;;;9.60;22.50;;;;;;5055762;28;20630;-78
2023/11/03 05:18:27;;;;;;;55.60;27.73;;;9.60;24.60;;;;;;5055858;28;20161;-78
2023/11/03 05:20:53;;;;;;;59.03;31.23;;;9.60;28.60;;;;;;5055642;28;20208;-78
2023/11/03 05:23:19;;;;;;;58.80;29.27;;;9.60;27.00;;;;;;5055559;28;20601;-77
2023/11/03 05:25:44;;;;;;;57.77;27.50;;;9.60;27.40;;;;;;5055821;28;20208;-77
2023/11/03 05:28:10;;;;;;;57.93;32.20;;;9.50;32.30;;;;;;5056033;28;20638;-77
2023/11/03 05:30:36;;;;;;;57.87;31.27;;;9.50;33.10;;;;;;5055434;28;20169;-77
2023/11/03 05:33:02;;;;;;;59.78;32.42;;;9.50;34.80;;;;;;5055386;28;20185;-77
2023/11/03 05:35:28;;;;;;;67.83;42.23;;;9.50;35.80;;;;;;5055105;28;20214;-77
2023/11/03 05:37:55;;;;;;;62.05;38.45;;;9.50;39.70;;;;;;5055269;28;20169;-77
2023/11/03 05:40:20;;;;;;;70.32;42.25;;;9.60;39.30;;;;;;5055152;28;20199;-77
2023/11/03 05:42:46;;;;;;;61.87;33.83;;;9.60;36.20;;;;;;5054970;28;20264;-77
2023/11/03 05:45:12;;;;;;;62.80;35.60;;;9.50;36.00;;;;;;5055164;28;20170;-77
2023/11/03 05:47:38;;;;;;;60.20;35.30;;;9.50;41.10;;;;;;5055157;28;20162;-77
2023/11/03 05:50:05;;;;;;;60.83;36.13;;;9.60;43.40;;;;;;5053549;28;20169;-77
2023/11/03 05:52:30;;;;;;;61.65;38.22;;;9.50;38.30;;;;;;5053832;28;20427;-77
2023/11/03 05:54:56;;;;;;;63.57;37.37;;;9.40;43.60;;;;;;5054767;28;20165;-77
2023/11/03 05:57:22;;;;;;;65.13;39.27;;;9.40;49.60;;;;;;5054940;28;20432;-77
2023/11/03 05:59:48;;;;;;;66.70;39.87;;;9.50;50.90;;;;;;5054899;28;20702;-77
2023/11/03 06:02:15;;;;;;;63.75;39.75;;;9.40;40.50;;;;;;5054672;28;20197;-77
2023/11/03 06:04:42;;;;;;;63.22;43.35;;;9.40;42.30;;;;;;5054020;28;20548;-77
2023/11/03 06:07:07;;;;;;;65.30;41.80;;;9.50;41.80;;;;;;5054124;28;20172;-78
2023/11/03 06:09:34;;;;;;;69.57;48.50;;;9.50;39.00;;;;;;5054522;28;20169;-77
2023/11/03 06:12:03;;;;;;;61.78;35.17;;;9.50;37.60;;;;;;5054707;28;20169;-77
2023/11/03 06:14:31;;;;;;;59.95;36.85;;;9.50;37.60;;;;;;5054311;28;20204;-78
2023/11/03 06:16:57;;;;;;;62.72;34.15;;;9.50;41.00;;;;;;5055108;28;20248;-78
2023/11/03 06:19:22;;;;;;;63.97;33.87;;;9.60;32.10;;;;;;5054601;28;20256;-78
2023/11/03 06:21:48;;;;;;;58.40;30.63;;;9.60;29.40;;;;;;5054695;28;20185;-78
2023/11/03 06:24:14;;;;;;;69.30;44.27;;;9.60;28.60;;;;;;5054242;28;20523;-77
2023/11/03 06:26:39;;;;;;;60.63;34.47;;;9.60;32.10;;;;;;5054408;28;20252;-78
2023/11/03 06:29:05;;;;;;;62.10;38.83;;;9.50;38.00;;;;;;5054030;28;20400;-77
2023/11/03 06:31:31;;;;;;;61.00;35.80;;;9.40;36.20;;;;;;5054186;28;20240;-77
2023/11/03 06:33:57;;;;;;;61.83;33.33;;;9.40;42.50;;;;;;5054084;28;20319;-77
2023/11/03 06:36:22;;;;;;;63.63;41.10;;;9.50;37.40;;;;;;5053898;28;20414;-78
2023/11/03 06:38:48;;;;;;;60.27;35.40;;;9.50;37.30;;;;;;5053908;28;20169;-78
2023/11/03 06:41:14;;;;;;;60.47;31.83;;;9.50;40.10;;;;;;5053767;28;20274;-77
2023/11/03 06:43:41;;;;;;;58.47;35.57;;;9.50;36.40;;;;;;5053810;28;20190;-78
2023/11/03 06:46:09;;;;;;;65.38;37.63;;;9.50;36.50;;;;;;5053771;28;20157;-77
2023/11/03 06:48:36;;;;;;;63.88;38.10;;;9.50;37.10;;;;;;5053671;28;20163;-77
2023/11/03 06:51:01;;;;;;;60.53;36.08;;;9.40;43.70;;;;;;5053574;28;20211;-77
2023/11/03 06:53:28;;;;;;;57.70;31.30;;;9.50;42.30;;;;;;5053668;28;20185;-77
2023/11/03 06:55:54;;;;;;;61.60;32.67;;;9.40;43.30;;;;;;5053550;28;20905;-77
2023/11/03 06:58:19;;;;;;;62.43;38.73;;;9.40;44.70;;;;;;5053552;28;20219;-77
2023/11/03 07:00:46;;;;;;;66.70;38.20;;;9.50;42.90;;;;;;5053846;28;20209;-77
2023/11/03 07:03:12;;;;;;;61.20;33.72;;;9.50;46.00;;;;;;5053569;28;20192;-77
2023/11/03 07:05:38;;;;;;;62.40;33.07;;;9.50;43.00;;;;;;5051503;28;20177;-77
2023/11/03 07:08:05;;;;;;;68.20;43.65;;;9.50;44.50;;;;;;5053379;28;20407;-77
2023/11/03 07:10:30;;;;;;;60.38;38.30;;;9.50;45.80;;;;;;5052066;28;20180;-77
2023/11/03 07:12:56;;;;;;;62.53;35.57;;;9.60;43.90;;;;;;5051920;28;20201;-77
2023/11/03 07:15:23;;;;;;;62.80;38.63;;;9.60;36.60;;;;;;5053255;28;20157;-77
2023/11/03 07:17:49;;;;;;;65.75;36.17;;;9.60;36.10;;;;;;5053506;28;20566;-77
2023/11/03 07:20:15;;;;;;;61.90;36.67;;;9.50;36.90;;;;;;5053174;28;20794;-77
2023/11/03 07:22:41;;;;;;;62.10;35.57;;;9.50;39.90;;;;;;5053725;28;20185;-77
2023/11/03 07:25:06;;;;;;;56.03;32.27;;;9.60;40.70;;;;;;5053168;28;20407;-77
2023/11/03 07:27:32;;;;;;;58.33;27.63;;;9.60;32.10;;;;;;5053375;28;20408;-77
2023/11/03 07:29:58;;;;;;;56.00;27.10;;;9.70;31.60;;;;;;5053080;28;20165;-77
2023/11/03 07:32:24;;;;;;;57.83;36.40;;;9.80;25.50;;;;;;5052994;28;20173;-77
2023/11/03 07:34:49;;;;;;;56.27;26.47;;;9.70;23.20;;;;;;5053071;28;20169;-77
2023/11/03 07:37:17;;;;;;;54.93;22.67;;;9.80;17.40;;;;;;5053253;28;20242;-77
2023/11/03 07:39:42;;;;;;;56.60;21.98;;;9.90;19.10;;;;;;5052885;28;20223;-77
2023/11/03 07:42:10;;;;;;;55.90;19.70;;;9.90;20.50;;;;;;5052964;28;20630;-77
2023/11/03 07:44:36;;;;;;;55.58;25.40;;;9.90;16.90;;;;;;5053126;28;20181;-77
2023/11/03 07:47:05;;;;;;;54.70;19.03;;;10.00;19.00;;;;;;5053077;28;20165;-77
2023/11/03 07:49:30;;;;;;;54.95;24.38;;;10.10;14.80;;;;;;5052880;28;20210;-77
2023/11/03 07:51:56;;;;;;;56.87;26.50;;;10.00;14.20;;;;;;5053035;28;20685;-77
2023/11/03 07:54:22;;;;;;;56.70;26.53;;;9.90;22.50;;;;;;5052781;28;20690;-77
2023/11/03 07:56:48;;;;;;;57.95;23.40;;;10.00;17.50;;;;;;5052862;28;20170;-77
2023/11/03 07:59:14;;;;;;;52.87;19.87;;;10.00;15.30;;;;;;5053109;28;20150;-77
2023/11/03 08:01:42;;;;;;;53.60;24.50;;;10.10;14.90;;;;;;5052796;28;20199;-77
2023/11/03 08:04:08;;;;;;;58.65;25.48;;;10.10;14.90;;;;;;5052913;28;20184;-77
2023/11/03 08:06:34;;;;;;;57.17;29.80;;;10.10;12.30;;;;;;5053015;28;20161;-77
2023/11/03 08:09:04;;;;;;;57.50;31.02;;;10.10;10.50;;;;;;5051465;28;20625;-77
2023/11/03 08:11:29;;;;;;;58.55;29.25;;;10.10;12.50;;;;;;5051482;28;20176;-77
2023/11/03 08:13:55;;;;;;;59.27;27.67;;;10.20;16.20;;;;;;5052602;28;20210;-77
2023/11/03 08:16:20;;;;;;;53.67;20.87;;;10.20;5.40;;;;;;5052828;28;20165;-77
2023/11/03 08:18:46;;;;;;;54.10;21.73;;;10.30;3.40;;;;;;5053258;28;20168;-77
2023/11/03 08:21:12;;;;;;;54.17;24.37;;;10.40;6.10;;;;;;5052619;28;20231;-78
2023/11/03 08:23:37;;;;;;;54.57;18.87;;;10.50;4.50;;;;;;5052590;28;20187;-77
2023/11/03 08:31:05;;;;;;;55.97;20.75;;;10.50;1.00;;;;;;5114049;28;20207;-77
2023/11/03 08:33:31;;;;;;;53.87;22.33;;;10.50;1.00;;;;;;5117084;28;20657;-77
2023/11/03 08:35:57;;;;;;;55.17;23.52;;;10.50;1.00;;;;;;5098692;28;20163;-77
2023/11/03 08:38:22;;;;;;;57.30;24.97;;;10.50;1.00;;;;;;5117138;28;20161;-77
2023/11/03 08:40:49;;;;;;;53.03;20.87;;;10.60;1.00;;;;;;5117018;28;20191;-77
2023/11/03 08:43:20;;;;;;;56.03;22.65;;;10.60;1.00;;;;;;5116878;28;20206;-77
2023/11/03 08:45:46;;;;;;;55.22;23.98;;;10.60;1.00;;;;;;5117062;28;20147;-77
2023/11/03 08:48:12;;;;;;;52.55;21.55;;;10.60;1.00;;;;;;5116657;28;20213;-77
2023/11/03 08:50:38;;;;;;;53.87;22.43;;;10.70;1.00;;;;;;5116587;28;20159;-77
2023/11/03 08:53:07;;;;;;;55.87;22.87;;;10.80;1.00;;;;;;5116799;28;20187;-77
2023/11/03 08:55:33;;;;;;;66.38;21.92;;;10.80;1.00;;;;;;5116863;28;20370;-77
2023/11/03 08:57:59;;;;;;;58.37;23.27;;;10.90;1.00;;;;;;5116744;28;20163;-77
2023/11/03 09:00:26;;;;;;;55.45;23.23;;;11.00;1.00;;;;;;5098132;28;20278;-77
2023/11/03 09:02:51;;;;;;;54.25;21.80;;;11.10;1.00;;;;;;5116356;28;20186;-77
2023/11/03 09:05:17;;;;;;;51.40;18.90;;;11.30;1.00;;;;;;5116384;28;20551;-77
2023/11/03 09:07:44;;;;;;;49.70;18.00;;;11.40;1.00;;;;;;5116340;28;20185;-77
2023/11/03 09:10:11;;;;;;;49.88;15.82;;;11.30;1.00;;;;;;5116512;28;20389;-77
2023/11/03 09:12:38;;;;;;;56.67;15.98;;;11.30;1.00;;;;;;5116092;28;20160;-77
2023/11/03 09:15:07;;;;;;;50.05;15.52;;;11.30;1.00;;;;;;5116149;28;20258;-77
2023/11/03 09:17:34;;;;;;;46.25;13.77;;;11.30;1.00;;;;;;5116038;28;20242;-77
2023/11/03 09:20:01;;;;;;;52.60;18.05;;;11.40;1.00;;;;;;5116181;28;20660;-77
2023/11/03 09:22:27;;;;;;;48.25;12.38;;;11.50;1.00;;;;;;5116185;28;20147;-77
2023/11/03 09:24:57;;;;;;;49.08;12.13;;;11.70;1.00;;;;;;5115930;28;20158;-77
2023/11/03 09:27:24;;;;;;;48.63;15.00;;;11.90;1.00;;;;;;5116214;28;20156;-77
2023/11/03 09:29:50;;;;;;;44.67;10.60;;;11.90;1.00;;;;;;5115775;28;20183;-77
2023/11/03 09:32:17;;;;;;;47.97;11.32;;;11.70;1.00;;;;;;5116109;28;20171;-77
2023/11/03 09:34:45;;;;;;;46.67;10.23;;;11.80;1.00;;;;;;5115747;28;20193;-77
2023/11/03 09:37:12;;;;;;;46.50;8.73;;;12.00;1.00;;;;;;5115464;28;20163;-77
2023/11/03 09:39:39;;;;;;;41.42;7.55;;;12.10;1.00;;;;;;5114800;28;20528;-77
2023/11/03 09:42:05;;;;;;;45.53;8.55;;;12.10;1.00;;;;;;5115757;28;20155;-77
2023/11/03 09:44:32;;;;;;;42.85;10.23;;;12.20;1.00;;;;;;5115535;28;20191;-77
2023/11/03 09:47:02;;;;;;;40.25;7.50;;;12.20;1.00;;;;;;5115486;28;20165;-77
2023/11/03 09:49:31;;;;;;;43.83;8.60;;;12.20;1.00;;;;;;5097239;28;20166;-77
2023/11/03 09:52:05;;;;;;;43.25;7.70;;;12.20;1.00;;;;;;5115844;28;20563;-77
2023/11/03 09:54:34;;;;;;;42.78;5.72;;;12.30;1.00;;;;;;5115639;28;20243;-77
2023/11/03 09:57:02;;;;;;;44.63;7.20;;;12.20;1.00;;;;;;5116025;28;20148;-77
2023/11/03 09:59:34;;;;;;;45.00;5.30;;;12.30;1.00;;;;;;5115605;28;20150;-77
2023/11/03 10:02:15;;;;;;;45.45;6.20;;;12.20;1.00;;;;;;5115458;28;20150;-77
2023/11/03 10:04:42;;;;;;;42.45;6.57;;;12.10;1.00;;;;;;5115825;28;20178;-77
2023/11/03 10:07:10;;;;;;;41.53;6.82;;;12.10;1.00;;;;;;5115505;28;20207;-77
2023/11/03 10:09:36;;;;;;;42.22;6.68;;;12.10;1.00;;;;;;5096983;28;20159;-77
2023/11/03 10:12:04;;;;;;;40.45;7.50;;;12.30;1.00;;;;;;5115124;28;20147;-77
2023/11/03 10:14:30;;;;;;;41.58;6.88;;;12.20;1.00;;;;;;5115086;28;20187;-77
2023/11/03 10:17:00;;;;;;;39.78;7.28;;;12.30;1.00;;;;;;5096871;28;20163;-77
2023/11/03 10:19:27;;;;;;;40.58;7.07;;;12.30;1.00;;;;;;5115138;28;20524;-77
2023/11/03 10:21:54;;;;;;;40.83;5.57;;;12.20;1.00;;;;;;5115182;28;20151;-77
2023/11/03 10:24:21;;;;;;;42.85;6.85;;;12.50;1.00;;;;;;5114756;28;20184;-77
2023/11/03 10:26:47;;;;;;;39.83;8.48;;;12.40;1.00;;;;;;5114777;28;20159;-77
2023/11/03 10:29:15;;;;;;;40.07;5.17;;;12.40;1.00;;;;;;5114643;28;20228;-77
2023/11/03 10:31:47;;;;;;;45.80;8.50;;;12.40;1.00;;;;;;5096486;28;20465;-76
2023/11/03 10:34:15;;;;;;;43.30;7.97;;;12.10;1.00;;;;;;5114603;28;20178;-76
2023/11/03 10:36:41;;;;;;;42.50;9.25;;;12.10;1.00;;;;;;5114548;28;20173;-76
2023/11/03 10:39:07;;;;;;;43.38;8.23;;;12.40;1.00;;;;;;5114526;28;20170;-76
2023/11/03 10:41:33;;;;;;;38.70;6.40;;;12.40;1.00;;;;;;5114646;28;20245;-76
2023/11/03 10:44:01;;;;;;;44.63;6.80;;;12.50;1.00;;;;;;5114446;28;20439;-76
2023/11/03 10:46:33;;;;;;;52.88;6.60;;;12.70;1.00;;;;;;5114371;28;20205;-76
2023/11/03 10:49:16;;;;;;;41.25;5.80;;;12.80;1.00;;;;;;5114333;28;20682;-76
2023/11/03 10:51:51;;;;;;;44.75;5.32;;;12.90;1.00;;;;;;5114814;28;20163;-76
2023/11/03 10:54:44;;;;;;;37.05;4.00;;;13.00;1.00;;;;;;5114997;28;20193;-76
2023/11/03 10:57:11;;;;;;;47.83;4.73;;;13.10;1.00;;;;;;5114721;28;20164;-76
2023/11/03 10:59:39;;;;;;;38.07;4.50;;;13.30;1.00;;;;;;5114326;28;20404;-76
2023/11/03 11:02:14;;;;;;;41.45;4.85;;;13.40;1.00;;;;;;5114064;28;20413;-76
2023/11/03 11:04:50;;;;;;;36.50;4.75;;;13.50;1.00;;;;;;5114135;28;20193;-76
2023/11/03 11:07:19;;;;;;;45.80;5.50;;;13.60;1.00;;;;;;5114524;28;20163;-76
2023/11/03 11:09:46;;;;;;;36.87;3.70;;;13.50;1.00;;;;;;5114419;28;20925;-76
2023/11/03 11:12:15;;;;;;;37.60;4.70;;;13.50;1.00;;;;;;5114257;28;20405;-75
2023/11/03 11:14:42;;;;;;;35.70;3.63;;;13.60;1.00;;;;;;5120481;22;20481;-76
2023/11/03 11:17:09;;;;;;;37.70;4.23;;;13.30;1.00;;;;;;5093496;28;20823;-76
2023/11/03 11:19:42;;;;;;;38.13;4.13;;;13.50;1.00;;;;;;5093477;28;20389;-76
2023/11/03 11:22:08;;;;;;;35.37;3.10;;;13.80;1.00;;;;;;5093402;28;20486;-76
2023/11/03 11:24:38;;;;;;;30.67;2.90;;;13.80;1.00;;;;;;5093320;28;20498;-76
2023/11/03 11:27:20;;;;;;;35.43;4.00;;;13.70;1.00;;;;;;5093389;28;20488;-76
2023/11/03 11:29:50;;;;;;;44.43;4.13;;;13.30;1.00;;;;;;5093598;28;20778;-76
2023/11/03 11:32:18;;;;;;;35.83;4.05;;;13.20;1.00;;;;;;5093523;28;20402;-76
2023/11/03 11:34:46;;;;;;;35.20;3.23;;;13.10;1.00;;;;;;5093186;28;20180;-76
2023/11/03 11:37:27;;;;;;;35.53;3.63;;;13.40;1.00;;;;;;5093495;28;20413;-76
2023/11/03 11:39:57;;;;;;;39.00;5.00;;;13.70;1.00;;;;;;5093968;28;20931;-76
2023/11/03 11:42:30;;;;;;;46.43;4.83;;;13.60;1.00;;;;;;5093158;28;20375;-76
2023/11/03 11:44:58;;;;;;;35.00;3.73;;;13.40;1.00;;;;;;5093165;28;20404;-76
2023/11/03 11:47:27;;;;;;;35.10;3.60;;;13.50;1.00;;;;;;5075065;28;20753;-76
2023/11/03 11:49:56;;;;;;;34.10;3.60;;;13.50;1.00;;;;;;5093158;28;20402;-76
2023/11/03 11:52:29;;;;;;;36.43;4.60;;;13.50;1.00;;;;;;5075003;28;20485;-76
2023/11/03 11:54:57;;;;;;;39.87;4.77;;;13.50;1.00;;;;;;5093106;28;20378;-76
2023/11/03 11:57:26;;;;;;;36.40;4.03;;;13.30;1.00;;;;;;5093357;28;20405;-76
2023/11/03 11:59:56;;;;;;;36.87;3.60;;;13.30;1.00;;;;;;5092902;28;20438;-76
2023/11/03 12:02:22;;;;;;;34.40;3.63;;;13.40;1.00;;;;;;5310689;22;20452;-75
2023/11/03 12:09:44;;;;;;;32.33;2.90;;;14.00;1.00;;;;;;5035124;28;20448;-76
2023/11/03 12:12:10;;;;;;;35.60;3.70;;;14.30;1.00;;;;;;5036846;28;20451;-76
2023/11/03 12:14:35;;;;;;;33.50;2.70;;;14.30;1.00;;;;;;5036628;28;20261;-77
2023/11/03 12:17:01;;;;;;;33.20;2.60;;;14.30;1.00;;;;;;5036729;28;20639;-76
2023/11/03 12:19:27;;;;;;;31.97;2.50;;;14.30;1.00;;;;;;5037127;28;20397;-77
2023/11/03 12:21:52;;;;;;;32.70;3.03;;;14.20;1.00;;;;;;5036653;28;20639;-76
2023/11/03 12:24:18;;;;;;;40.63;3.83;;;14.10;1.00;;;;;;5036441;28;20192;-76
2023/11/03 12:26:44;;;;;;;35.10;3.80;;;14.10;1.00;;;;;;5036488;28;20165;-76
2023/11/03 12:29:30;;;;;;;33.70;3.60;;;13.90;1.00;;;;;;5036445;28;20173;-76
2023/11/03 12:32:00;;;;;;;33.87;3.27;;;13.90;1.00;;;;;;5036668;28;20443;-76
2023/11/03 12:34:27;;;;;;;31.90;3.10;;;13.90;1.00;;;;;;5036341;28;20420;-76
2023/11/03 12:36:57;;;;;;;33.53;2.60;;;13.90;1.00;;;;;;5036279;28;20412;-76
2023/11/03 12:39:23;;;;;;;35.27;2.90;;;13.90;1.00;;;;;;5036257;28;20418;-76
2023/11/03 12:42:09;;;;;;;32.17;2.83;;;14.20;1.00;;;;;;5036064;28;20536;-76
2023/11/03 12:44:56;;;;;;;26.93;2.00;;;14.30;1.00;;;;;;5036470;28;20424;-76
2023/11/03 12:47:40;;;;;;;36.00;3.00;;;14.40;1.00;;;;;;5034840;28;20404;-77
2023/11/03 12:50:19;;;;;;;32.80;3.37;;;14.30;1.00;;;;;;5036047;28;20416;-76